Time;durP1;ratioP1;P1;durP2;ratioP2;P2;SDS_P1;SDS_P2;PMS_P1;PMS_P2;Temp;Humidity;BMP_temperature;BMP_pressure;BME280_temperature;BME280_humidity;BME280_pressure;Samples;Min_cycle;Max_cycle;Signal;HPM_P1;HPM_P2
2023/06/28 00:01:07;;;;;;;7.07;3.70;;;29.20;99.90;;;;;;4966767;23;20047;-52
2023/06/28 00:03:33;;;;;;;5.03;3.75;;;29.20;99.90;;;;;;4951592;28;20114;-50
2023/06/28 00:05:59;;;;;;;7.68;5.45;;;29.20;99.90;;;;;;4954404;28;20559;-51
2023/06/28 00:08:25;;;;;;;8.07;5.20;;;29.20;99.90;;;;;;4953087;29;20023;-51
2023/06/28 00:10:51;;;;;;;5.80;4.20;;;29.20;99.90;;;;;;4954009;29;20070;-50
2023/06/28 00:13:18;;;;;;;6.35;4.55;;;29.20;99.90;;;;;;4953926;28;20023;-50
2023/06/28 00:15:45;;;;;;;7.35;4.00;;;29.20;99.90;;;;;;4953739;29;20077;-50
2023/06/28 00:18:11;;;;;;;4.88;4.07;;;29.20;99.90;;;;;;4953786;28;20110;-51
2023/06/28 00:20:36;;;;;;;5.38;4.10;;;29.20;99.90;;;;;;4954837;28;20185;-51
2023/06/28 00:23:03;;;;;;;5.90;3.97;;;29.10;99.90;;;;;;4954603;29;20166;-50
2023/06/28 00:25:29;;;;;;;6.03;3.90;;;29.10;99.90;;;;;;4954412;28;20384;-50
2023/06/28 00:27:55;;;;;;;6.25;4.95;;;29.10;99.90;;;;;;4954447;28;20031;-50
2023/06/28 00:30:20;;;;;;;6.93;5.10;;;29.10;99.90;;;;;;4954323;28;20026;-51
2023/06/28 00:32:46;;;;;;;6.85;4.30;;;29.10;99.90;;;;;;4953761;28;20065;-50
2023/06/28 00:35:12;;;;;;;4.97;3.85;;;29.10;99.90;;;;;;4954160;28;20034;-51
2023/06/28 00:37:38;;;;;;;6.40;3.65;;;29.10;99.90;;;;;;4954389;28;20118;-50
2023/06/28 00:40:07;;;;;;;5.80;4.07;;;29.10;99.90;;;;;;4954707;28;20031;-50
2023/06/28 00:42:33;;;;;;;10.82;3.80;;;29.10;99.90;;;;;;4954681;28;20062;-50
2023/06/28 00:44:59;;;;;;;5.40;3.75;;;29.10;99.90;;;;;;4954293;29;20464;-50
2023/06/28 00:47:26;;;;;;;8.25;3.67;;;29.10;99.90;;;;;;4954110;28;20028;-50
2023/06/28 00:49:53;;;;;;;;;;;29.00;99.90;;;;;;4954791;28;20024;-51
2023/06/28 00:52:19;;;;;;;6.07;4.10;;;29.10;99.90;;;;;;4952923;29;19913;-55
2023/06/28 00:54:44;;;;;;;7.30;4.25;;;29.00;99.90;;;;;;4954424;28;20031;-50
2023/06/28 00:57:11;;;;;;;5.18;4.10;;;29.10;99.90;;;;;;4954157;28;20023;-50
2023/06/28 00:59:37;;;;;;;4.20;3.65;;;29.00;99.90;;;;;;4952934;29;20055;-50
2023/06/28 01:02:03;;;;;;;7.40;4.07;;;29.00;99.90;;;;;;4954555;28;20055;-51
2023/06/28 01:04:29;;;;;;;6.00;3.78;;;29.00;99.90;;;;;;4954049;28;20031;-50
2023/06/28 01:06:59;;;;;;;7.93;3.60;;;29.00;99.90;;;;;;4954065;28;20030;-51
2023/06/28 01:09:28;;;;;;;5.63;4.30;;;29.00;99.90;;;;;;4954146;28;20034;-51
2023/06/28 01:11:55;;;;;;;6.32;4.60;;;28.90;99.90;;;;;;4953932;28;20031;-50
2023/06/28 01:14:23;;;;;;;5.35;3.80;;;28.90;99.90;;;;;;4953921;28;20055;-51
2023/06/28 01:16:54;;;;;;;6.57;3.88;;;28.90;99.90;;;;;;4954102;28;20113;-51
2023/06/28 01:19:25;;;;;;;7.53;3.97;;;28.90;99.90;;;;;;4953952;28;20026;-51
2023/06/28 01:22:00;;;;;;;7.50;3.72;;;28.90;99.90;;;;;;4954058;28;20027;-50
2023/06/28 01:24:26;;;;;;;5.97;3.70;;;28.90;99.90;;;;;;4953763;28;20388;-50
2023/06/28 01:26:53;;;;;;;7.88;4.53;;;28.90;99.90;;;;;;4953821;28;20024;-50
2023/06/28 01:29:23;;;;;;;8.10;5.90;;;28.90;99.90;;;;;;4953854;28;20110;-50
2023/06/28 01:31:53;;;;;;;8.18;4.60;;;28.90;99.90;;;;;;4953923;28;20071;-50
2023/06/28 01:34:19;;;;;;;6.90;4.10;;;28.80;99.90;;;;;;4953588;28;20023;-50
2023/06/28 01:36:47;;;;;;;4.80;3.50;;;28.80;99.90;;;;;;4954005;28;20027;-50
2023/06/28 01:39:16;;;;;;;5.00;3.70;;;28.80;99.90;;;;;;4953807;28;20032;-53
2023/06/28 01:41:42;;;;;;;5.30;3.67;;;28.90;99.90;;;;;;4953746;28;20019;-50
2023/06/28 01:44:08;;;;;;;4.72;3.40;;;28.80;99.90;;;;;;4955151;28;20032;-50
2023/06/28 01:46:34;;;;;;;6.00;4.18;;;28.80;99.90;;;;;;4957343;28;20027;-51
2023/06/28 01:49:01;;;;;;;5.13;3.50;;;28.80;99.90;;;;;;4956036;29;20027;-51
2023/06/28 01:51:27;;;;;;;4.27;3.40;;;28.80;99.90;;;;;;4957481;28;20097;-51
2023/06/28 01:53:53;;;;;;;5.05;3.80;;;28.80;99.90;;;;;;4957143;28;20484;-51
2023/06/28 01:56:19;;;;;;;4.18;3.60;;;28.80;99.90;;;;;;4957235;28;20511;-51
2023/06/28 01:58:45;;;;;;;6.97;3.67;;;28.80;99.90;;;;;;4957212;29;20066;-51
2023/06/28 02:01:10;;;;;;;9.57;3.90;;;28.80;99.90;;;;;;4957821;29;20500;-50
2023/06/28 02:03:36;;;;;;;4.88;3.75;;;28.80;99.90;;;;;;4957109;28;20110;-50
2023/06/28 02:06:02;;;;;;;8.68;4.35;;;28.80;99.90;;;;;;4956953;28;20026;-52
2023/06/28 02:08:28;;;;;;;4.85;3.58;;;28.70;99.90;;;;;;4957014;28;20481;-51
2023/06/28 02:10:54;;;;;;;5.13;3.65;;;28.80;99.90;;;;;;4956882;28;20038;-51
2023/06/28 02:13:19;;;;;;;7.88;4.00;;;28.70;99.90;;;;;;4956912;28;20031;-51
2023/06/28 02:15:45;;;;;;;6.57;4.20;;;28.70;99.90;;;;;;4957089;29;20023;-51
2023/06/28 02:18:11;;;;;;;6.20;3.85;;;28.70;99.90;;;;;;4957141;28;20054;-51
2023/06/28 02:20:38;;;;;;;6.00;3.67;;;28.70;99.90;;;;;;4956886;28;20047;-51
2023/06/28 02:23:04;;;;;;;5.78;3.58;;;28.70;99.90;;;;;;4956652;28;20027;-51
2023/06/28 02:25:29;;;;;;;6.15;3.70;;;28.70;99.90;;;;;;4955491;29;20038;-50
2023/06/28 02:27:55;;;;;;;6.55;4.03;;;28.80;99.90;;;;;;4956745;29;20475;-50
2023/06/28 02:30:21;;;;;;;5.90;4.18;;;28.80;99.90;;;;;;4955321;29;20031;-50
2023/06/28 02:32:46;;;;;;;5.70;4.45;;;28.70;99.90;;;;;;4956533;29;20035;-50
2023/06/28 02:35:12;;;;;;;6.57;4.30;;;28.70;99.90;;;;;;4957145;28;20078;-50
2023/06/28 02:37:38;;;;;;;6.03;4.57;;;28.70;99.90;;;;;;4956514;28;20050;-51
2023/06/28 02:40:04;;;;;;;7.15;4.45;;;28.80;99.90;;;;;;4956548;28;20031;-51
2023/06/28 02:42:30;;;;;;;7.67;4.93;;;28.80;99.90;;;;;;4956613;29;20388;-51
2023/06/28 02:44:57;;;;;;;8.10;4.35;;;28.80;99.90;;;;;;4956451;29;20126;-51
2023/06/28 02:47:22;;;;;;;5.20;3.70;;;28.80;99.90;;;;;;4955099;29;20066;-52
2023/06/28 02:49:48;;;;;;;6.25;4.50;;;28.70;99.90;;;;;;4956348;29;20024;-51
2023/06/28 02:52:14;;;;;;;7.85;3.90;;;28.80;99.90;;;;;;4952142;28;20027;-51
2023/06/28 02:54:40;;;;;;;6.47;4.55;;;28.70;99.90;;;;;;4955054;28;20054;-51
2023/06/28 02:57:08;;;;;;;5.40;3.85;;;28.70;99.90;;;;;;4954231;28;20024;-51
2023/06/28 02:59:34;;;;;;;6.13;4.30;;;28.70;99.90;;;;;;4955937;29;20028;-51
2023/06/28 03:01:59;;;;;;;7.07;3.72;;;28.70;99.90;;;;;;4956451;29;20066;-51
2023/06/28 03:04:28;;;;;;;6.72;4.00;;;28.70;99.90;;;;;;4955954;28;20035;-51
2023/06/28 03:06:54;;;;;;;9.68;4.95;;;28.70;99.90;;;;;;4955890;29;20027;-51
2023/06/28 03:09:21;;;;;;;6.47;4.03;;;28.70;99.90;;;;;;4955997;28;20038;-51
2023/06/28 03:11:47;;;;;;;7.60;4.43;;;28.70;99.90;;;;;;4956029;28;20023;-51
2023/06/28 03:14:13;;;;;;;12.20;4.72;;;28.70;99.90;;;;;;4955492;28;20038;-51
2023/06/28 03:16:39;;;;;;;8.15;3.70;;;28.80;99.90;;;;;;4955456;29;20074;-52
2023/06/28 03:19:07;;;;;;;7.57;4.05;;;28.80;99.90;;;;;;4955888;28;20480;-51
2023/06/28 03:21:33;;;;;;;5.80;3.65;;;28.70;99.90;;;;;;4955631;28;20023;-51
2023/06/28 03:23:58;;;;;;;7.28;4.13;;;28.70;99.90;;;;;;4955655;28;20035;-51
2023/06/28 03:26:24;;;;;;;6.93;4.43;;;28.70;99.90;;;;;;4955570;28;20023;-52
2023/06/28 03:28:50;;;;;;;4.95;4.00;;;28.70;99.90;;;;;;4954439;29;20074;-51
2023/06/28 03:31:16;;;;;;;5.85;3.55;;;28.70;99.90;;;;;;4955912;28;20027;-51
2023/06/28 03:33:42;;;;;;;8.77;4.70;;;28.70;99.90;;;;;;4955678;28;20078;-52
2023/06/28 03:36:07;;;;;;;8.13;4.25;;;28.70;99.90;;;;;;4955425;28;20069;-51
2023/06/28 03:38:33;;;;;;;6.22;3.95;;;28.70;99.90;;;;;;4955488;28;20432;-51
2023/06/28 03:40:59;;;;;;;7.13;4.07;;;28.70;99.90;;;;;;4955381;28;20492;-50
2023/06/28 03:43:25;;;;;;;4.97;3.90;;;28.70;99.90;;;;;;4955360;28;20041;-50
2023/06/28 03:45:50;;;;;;;8.73;4.00;;;28.70;99.90;;;;;;4953985;29;20476;-50
2023/06/28 03:48:18;;;;;;;6.97;3.95;;;28.60;99.90;;;;;;4955413;28;20038;-51
2023/06/28 03:50:44;;;;;;;6.03;3.72;;;28.60;99.90;;;;;;4955407;29;20023;-50
2023/06/28 03:53:09;;;;;;;8.60;5.13;;;28.60;99.90;;;;;;4955227;28;20113;-50
2023/06/28 03:55:36;;;;;;;5.72;4.28;;;28.60;99.90;;;;;;4955435;28;20023;-50
2023/06/28 03:58:02;;;;;;;6.67;4.43;;;28.60;99.90;;;;;;4955162;28;20023;-51
2023/06/28 04:00:28;;;;;;;4.88;3.97;;;28.60;99.90;;;;;;4955052;28;20603;-51
2023/06/28 04:02:53;;;;;;;6.20;3.75;;;28.60;99.90;;;;;;4954940;29;20392;-50
2023/06/28 04:05:19;;;;;;;5.80;4.15;;;28.60;99.90;;;;;;4954887;28;20019;-51
2023/06/28 04:07:54;;;;;;;8.15;4.80;;;28.60;99.90;;;;;;4954394;28;20023;-51
2023/06/28 04:10:21;;;;;;;6.57;3.83;;;28.60;99.90;;;;;;4954851;28;20038;-51
2023/06/28 04:12:46;;;;;;;7.65;3.70;;;28.60;99.90;;;;;;4953751;29;20395;-52
2023/06/28 04:15:12;;;;;;;5.97;4.10;;;28.60;99.90;;;;;;4954771;29;20028;-51
2023/06/28 04:17:38;;;;;;;5.15;3.50;;;28.60;99.90;;;;;;4954513;28;20380;-52
2023/06/28 04:20:08;;;;;;;6.05;3.75;;;28.60;99.90;;;;;;4953472;29;20066;-51
2023/06/28 04:22:34;;;;;;;7.75;3.80;;;28.60;99.90;;;;;;4954601;28;20055;-51
2023/06/28 04:25:00;;;;;;;5.55;3.50;;;28.60;99.90;;;;;;4954622;28;20069;-53
2023/06/28 04:27:26;;;;;;;6.18;3.67;;;28.60;99.90;;;;;;4954587;28;20415;-50
2023/06/28 04:29:52;;;;;;;4.72;3.85;;;28.60;99.90;;;;;;4954508;29;20031;-50
2023/06/28 04:32:25;;;;;;;6.03;4.38;;;28.60;99.90;;;;;;4954500;29;20030;-52
2023/06/28 04:34:53;;;;;;;6.32;3.80;;;28.60;99.90;;;;;;4954530;28;20019;-52
2023/06/28 04:37:19;;;;;;;;;;;28.60;99.90;;;;;;4955213;28;20023;-52
2023/06/28 04:39:45;;;;;;;10.93;4.47;;;28.60;99.90;;;;;;4954755;28;19913;-53
2023/06/28 04:42:14;;;;;;;7.20;4.32;;;28.70;99.90;;;;;;4954379;29;20024;-53
2023/06/28 04:44:41;;;;;;;8.18;4.13;;;28.70;99.90;;;;;;4954124;28;20031;-52
2023/06/28 04:47:07;;;;;;;6.07;4.00;;;28.70;99.90;;;;;;4954348;28;20022;-52
2023/06/28 04:49:34;;;;;;;6.70;4.95;;;28.60;99.90;;;;;;4953229;29;20039;-53
2023/06/28 04:52:00;;;;;;;10.20;4.75;;;28.70;99.90;;;;;;4952999;29;20542;-52
2023/06/28 04:54:26;;;;;;;9.57;6.25;;;28.70;99.90;;;;;;4954247;28;20059;-51
2023/06/28 04:56:52;;;;;;;16.33;5.47;;;28.70;99.90;;;;;;4954025;29;20032;-52
2023/06/28 04:59:18;;;;;;;11.10;4.22;;;28.70;99.90;;;;;;4952901;29;20027;-52
2023/06/28 05:01:44;;;;;;;8.23;4.38;;;28.80;99.90;;;;;;4942617;29;20069;-52
2023/06/28 05:04:10;;;;;;;10.10;5.78;;;28.80;99.90;;;;;;4934843;29;20039;-52
2023/06/28 05:06:35;;;;;;;10.45;4.80;;;28.70;99.90;;;;;;4934480;29;20035;-52
2023/06/28 05:09:02;;;;;;;9.52;4.72;;;28.70;99.90;;;;;;4933628;29;20102;-52
2023/06/28 05:11:28;;;;;;;11.27;5.00;;;28.80;99.90;;;;;;4932834;29;20471;-52
2023/06/28 05:13:53;;;;;;;11.20;4.53;;;28.80;99.90;;;;;;4934590;29;20059;-51
2023/06/28 05:16:19;;;;;;;14.00;4.85;;;28.70;99.90;;;;;;4934821;29;20495;-51
2023/06/28 05:18:46;;;;;;;5.88;4.72;;;28.70;99.90;;;;;;4937273;29;20495;-52
2023/06/28 05:21:12;;;;;;;5.90;4.25;;;28.80;99.90;;;;;;4937554;29;20118;-52
2023/06/28 05:23:37;;;;;;;8.85;4.45;;;28.70;99.90;;;;;;4938775;29;20067;-52
2023/06/28 05:26:03;;;;;;;6.15;4.50;;;28.80;99.90;;;;;;4938613;29;20389;-52
2023/06/28 05:28:29;;;;;;;7.25;4.50;;;28.80;99.90;;;;;;4938541;29;20055;-53
2023/06/28 05:30:55;;;;;;;8.52;4.40;;;28.70;99.90;;;;;;4938620;29;20028;-52
2023/06/28 05:33:21;;;;;;;8.50;4.63;;;28.80;99.90;;;;;;4938873;29;20031;-52
2023/06/28 05:35:47;;;;;;;6.45;3.90;;;28.80;99.90;;;;;;4938437;29;20059;-52
2023/06/28 05:38:13;;;;;;;11.23;4.32;;;28.80;99.90;;;;;;4938522;29;20024;-52
2023/06/28 05:40:39;;;;;;;10.40;4.93;;;28.80;99.90;;;;;;4937037;29;20042;-52
2023/06/28 05:43:05;;;;;;;7.40;4.15;;;28.80;99.90;;;;;;4943040;29;20020;-52
2023/06/28 05:45:30;;;;;;;11.23;4.90;;;28.80;99.90;;;;;;4955757;29;20031;-52
2023/06/28 05:47:57;;;;;;;7.95;4.60;;;28.80;99.90;;;;;;4954397;29;20024;-52
2023/06/28 05:50:23;;;;;;;9.65;4.13;;;28.80;99.90;;;;;;4956147;28;20110;-52
2023/06/28 05:52:50;;;;;;;7.25;4.78;;;28.80;99.90;;;;;;4957472;28;20055;-52
2023/06/28 05:55:16;;;;;;;13.35;4.82;;;28.80;99.90;;;;;;4957249;28;20034;-52
2023/06/28 05:57:42;;;;;;;7.13;4.22;;;28.80;99.90;;;;;;4957386;28;20031;-52
2023/06/28 06:00:10;;;;;;;11.18;4.78;;;28.90;99.90;;;;;;4957038;29;20074;-52
2023/06/28 06:02:36;;;;;;;7.97;4.00;;;28.90;99.90;;;;;;4955655;29;20102;-52
2023/06/28 06:05:03;;;;;;;9.35;4.35;;;28.90;99.90;;;;;;4957126;28;20032;-51
2023/06/28 06:07:29;;;;;;;;;;;28.90;99.90;;;;;;4957328;28;20118;-52
2023/06/28 06:09:56;;;;;;;10.35;4.10;;;28.90;99.90;;;;;;4956929;28;19913;-52
2023/06/28 06:12:23;;;;;;;10.60;4.70;;;29.00;99.90;;;;;;4957196;28;20027;-52
2023/06/28 06:14:50;;;;;;;8.43;4.03;;;29.00;99.90;;;;;;4957024;28;20031;-52
2023/06/28 06:17:17;;;;;;;10.07;5.00;;;29.00;99.90;;;;;;4956927;28;20034;-51
2023/06/28 06:19:42;;;;;;;6.40;4.33;;;29.00;99.90;;;;;;4956777;28;20023;-51
2023/06/28 06:22:08;;;;;;;6.18;4.43;;;29.00;99.90;;;;;;4956852;29;20484;-51
2023/06/28 06:24:34;;;;;;;9.45;4.32;;;29.10;99.90;;;;;;4955287;29;20046;-52
2023/06/28 06:27:00;;;;;;;13.32;4.93;;;29.10;99.90;;;;;;4956641;29;20031;-52
2023/06/28 06:29:25;;;;;;;8.73;5.15;;;29.10;99.90;;;;;;4955926;28;20023;-51
2023/06/28 06:31:51;;;;;;;7.60;4.55;;;29.10;99.90;;;;;;4956772;29;20032;-51
2023/06/28 06:34:17;;;;;;;8.05;4.88;;;29.10;99.90;;;;;;4956512;29;20379;-51
2023/06/28 06:36:43;;;;;;;16.25;5.30;;;29.20;99.90;;;;;;4956640;29;20543;-52
2023/06/28 06:39:09;;;;;;;6.97;5.10;;;29.20;99.90;;;;;;4955323;29;20039;-52
2023/06/28 06:41:35;;;;;;;14.55;4.97;;;29.20;99.90;;;;;;4955054;29;20472;-52
2023/06/28 06:44:00;;;;;;;16.67;8.20;;;29.30;99.90;;;;;;4954953;29;20039;-52
2023/06/28 06:46:26;;;;;;;22.50;6.38;;;29.30;99.90;;;;;;4956411;29;20417;-52
2023/06/28 06:48:53;;;;;;;18.92;6.18;;;29.30;99.90;;;;;;4956537;28;20023;-52
2023/06/28 06:51:19;;;;;;;17.45;6.55;;;29.40;99.90;;;;;;4956279;28;20047;-52
2023/06/28 06:53:45;;;;;;;20.52;6.93;;;29.30;99.90;;;;;;4956292;28;20077;-52
2023/06/28 06:56:11;;;;;;;22.00;7.47;;;29.40;99.90;;;;;;4954814;29;20082;-52
2023/06/28 06:58:36;;;;;;;24.77;7.57;;;29.40;99.90;;;;;;4956279;29;20062;-52
2023/06/28 07:01:03;;;;;;;24.88;7.90;;;29.40;99.90;;;;;;4956001;28;20055;-52
2023/06/28 07:03:29;;;;;;;20.30;6.78;;;29.40;99.90;;;;;;4955961;28;20035;-52
2023/06/28 07:05:55;;;;;;;16.13;6.80;;;29.40;99.90;;;;;;4955000;29;20035;-52
2023/06/28 07:08:20;;;;;;;10.73;5.88;;;29.40;99.90;;;;;;4955891;29;20031;-52
2023/06/28 07:10:46;;;;;;;28.10;6.57;;;29.40;99.90;;;;;;4955893;29;20053;-52
2023/06/28 07:13:12;;;;;;;25.10;6.55;;;29.40;99.90;;;;;;4956092;28;20098;-52
2023/06/28 07:15:38;;;;;;;18.98;6.35;;;29.40;99.90;;;;;;4955856;29;20027;-52
2023/06/28 07:18:04;;;;;;;12.80;5.97;;;29.40;99.90;;;;;;4955973;29;20058;-52
2023/06/28 07:20:30;;;;;;;17.40;5.03;;;29.50;99.90;;;;;;4955862;28;20063;-51
2023/06/28 07:22:55;;;;;;;9.80;4.85;;;29.40;99.90;;;;;;4955807;29;20459;-51
2023/06/28 07:25:21;;;;;;;14.38;5.70;;;29.40;99.90;;;;;;4955803;28;20059;-51
2023/06/28 07:27:47;;;;;;;10.85;4.57;;;29.40;99.90;;;;;;4954278;29;20027;-52
2023/06/28 07:30:13;;;;;;;8.25;4.95;;;29.40;99.90;;;;;;4955567;28;20023;-51
2023/06/28 07:32:39;;;;;;;10.35;4.88;;;29.30;99.90;;;;;;4955350;28;20031;-51
2023/06/28 07:35:05;;;;;;;11.77;4.93;;;29.30;99.90;;;;;;4954281;29;20075;-52
2023/06/28 07:37:31;;;;;;;8.00;4.47;;;29.20;99.90;;;;;;4955433;28;20429;-52
2023/06/28 07:39:58;;;;;;;7.32;4.93;;;29.20;99.90;;;;;;4955510;29;20025;-52
2023/06/28 07:42:24;;;;;;;13.65;4.43;;;29.20;99.90;;;;;;4955313;28;20050;-52
2023/06/28 07:44:50;;;;;;;8.27;4.38;;;29.20;99.90;;;;;;4955319;28;20047;-52
2023/06/28 07:47:16;;;;;;;15.60;4.95;;;29.20;99.90;;;;;;4955228;28;20031;-52
2023/06/28 07:49:42;;;;;;;8.90;5.10;;;29.20;99.90;;;;;;4955876;28;20023;-51
2023/06/28 07:52:09;;;;;;;10.02;5.00;;;29.20;99.90;;;;;;4955335;29;20479;-51
2023/06/28 07:54:35;;;;;;;10.88;4.60;;;29.10;99.90;;;;;;4955235;28;20066;-51
2023/06/28 07:57:01;;;;;;;9.40;5.05;;;29.20;99.90;;;;;;4953824;29;20467;-51
2023/06/28 07:59:27;;;;;;;8.35;4.57;;;29.20;99.90;;;;;;4955143;29;20102;-51
2023/06/28 08:01:52;;;;;;;12.20;4.90;;;29.10;99.90;;;;;;4953522;29;20134;-50
2023/06/28 08:04:20;;;;;;;13.38;4.75;;;29.20;99.90;;;;;;4953652;29;20043;-51
2023/06/28 08:06:46;;;;;;;10.18;4.53;;;29.20;99.90;;;;;;4954952;28;20042;-51
2023/06/28 08:09:12;;;;;;;9.70;4.40;;;29.20;99.90;;;;;;4954796;28;20066;-51
2023/06/28 08:11:39;;;;;;;;;;;29.20;99.90;;;;;;4955041;29;20130;-51
2023/06/28 08:14:05;;;;;;;8.32;4.32;;;29.20;99.90;;;;;;4953342;29;19978;-51
2023/06/28 08:16:31;;;;;;;9.85;4.65;;;29.20;99.90;;;;;;4954784;29;20086;-51
2023/06/28 08:18:57;;;;;;;11.43;4.50;;;29.20;99.90;;;;;;4953751;29;20027;-51
2023/06/28 08:21:23;;;;;;;9.02;4.78;;;29.20;99.90;;;;;;4954783;28;20439;-53
2023/06/28 08:23:49;;;;;;;9.75;4.75;;;29.20;99.90;;;;;;4953458;29;20079;-52
2023/06/28 08:26:15;;;;;;;8.07;4.57;;;29.20;99.90;;;;;;4953479;29;20027;-52
2023/06/28 08:28:41;;;;;;;7.43;4.17;;;29.20;99.90;;;;;;4954578;28;20027;-53
2023/06/28 08:31:07;;;;;;;7.03;4.32;;;29.20;99.90;;;;;;4951794;29;20496;-51
2023/06/28 08:33:33;;;;;;;6.55;4.05;;;29.20;99.90;;;;;;4952470;29;20027;-50
2023/06/28 08:35:59;;;;;;;9.07;4.25;;;29.30;99.90;;;;;;4953141;28;20034;-52
2023/06/28 08:38:25;;;;;;;6.57;4.55;;;29.30;99.90;;;;;;4952519;28;20028;-51
2023/06/28 08:40:51;;;;;;;8.73;4.15;;;29.40;99.90;;;;;;4953509;29;20034;-50
2023/06/28 08:43:19;;;;;;;9.10;4.65;;;29.40;99.90;;;;;;4954193;28;20023;-50
2023/06/28 08:45:45;;;;;;;9.43;4.03;;;29.40;99.90;;;;;;4954245;28;20063;-50
2023/06/28 08:48:14;;;;;;;10.07;4.90;;;29.40;99.90;;;;;;4954235;28;20099;-50
2023/06/28 08:50:43;;;;;;;7.85;3.78;;;29.40;99.90;;;;;;4954081;29;20182;-50
2023/06/28 08:53:13;;;;;;;9.10;4.15;;;29.50;99.90;;;;;;4953742;28;20051;-51
2023/06/28 08:55:41;;;;;;;8.05;4.20;;;29.50;99.90;;;;;;4954149;28;20098;-51
2023/06/28 08:58:08;;;;;;;10.63;3.60;;;29.60;99.90;;;;;;4954163;28;20340;-51
2023/06/28 09:00:34;;;;;;;6.97;4.00;;;29.60;99.90;;;;;;4953973;28;20035;-50
2023/06/28 09:03:01;;;;;;;8.23;4.78;;;29.60;99.90;;;;;;4954057;28;20039;-51
2023/06/28 09:05:27;;;;;;;10.60;4.63;;;29.60;99.90;;;;;;4954004;28;20043;-51
2023/06/28 09:07:56;;;;;;;5.00;3.60;;;29.60;99.90;;;;;;4954032;28;20032;-51
2023/06/28 09:10:23;;;;;;;8.98;3.65;;;29.60;99.90;;;;;;4953912;28;20035;-51
2023/06/28 09:12:49;;;;;;;7.40;4.27;;;29.70;99.90;;;;;;4952791;29;20413;-52
2023/06/28 09:15:20;;;;;;;8.05;3.67;;;29.70;99.90;;;;;;4954117;28;20019;-52
2023/06/28 09:17:46;;;;;;;12.25;4.40;;;29.70;99.90;;;;;;4953886;28;20047;-52
2023/06/28 09:20:20;;;;;;;6.22;4.18;;;29.70;99.90;;;;;;4952992;29;20365;-51
2023/06/28 09:22:57;;;;;;;13.55;4.28;;;29.70;99.90;;;;;;4953989;28;20098;-51
2023/06/28 09:25:27;;;;;;;7.90;4.68;;;29.70;99.90;;;;;;4953856;28;20408;-52
2023/06/28 09:27:56;;;;;;;9.05;4.53;;;29.70;99.90;;;;;;4953826;28;20028;-51
2023/06/28 09:30:22;;;;;;;10.57;4.20;;;29.70;99.90;;;;;;4953748;28;20050;-51
2023/06/28 09:32:52;;;;;;;9.60;4.90;;;29.60;99.90;;;;;;4952615;29;20023;-52
2023/06/28 09:35:18;;;;;;;8.38;4.32;;;29.60;99.90;;;;;;4953730;28;20023;-52
2023/06/28 09:37:55;;;;;;;9.70;4.30;;;29.60;99.90;;;;;;4953809;28;20032;-52
2023/06/28 09:40:21;;;;;;;;;;;29.60;99.90;;;;;;4954200;28;20027;-52
2023/06/28 09:42:48;;;;;;;8.98;4.78;;;29.60;99.90;;;;;;4953810;28;19906;-51
2023/06/28 09:45:35;;;;;;;10.63;4.28;;;29.60;99.90;;;;;;4953708;29;20170;-51
2023/06/28 09:48:02;;;;;;;11.43;5.53;;;29.60;99.90;;;;;;4953727;28;20027;-51
2023/06/28 09:50:38;;;;;;;12.00;5.93;;;29.60;99.90;;;;;;4953712;28;20031;-51
2023/06/28 09:53:08;;;;;;;10.05;5.50;;;29.50;99.90;;;;;;4953619;28;20030;-51
2023/06/28 09:55:36;;;;;;;8.18;6.93;;;29.60;99.90;;;;;;4952526;29;20037;-51
2023/06/28 09:58:02;;;;;;;11.15;7.82;;;29.50;99.90;;;;;;4953683;28;20027;-52
2023/06/28 10:00:31;;;;;;;13.48;5.40;;;29.50;99.90;;;;;;4953389;28;20098;-51
2023/06/28 10:03:01;;;;;;;11.18;4.55;;;29.50;99.90;;;;;;4953379;28;20396;-51
2023/06/28 10:05:27;;;;;;;14.82;6.47;;;29.50;99.90;;;;;;4955284;28;20027;-51
2023/06/28 10:07:54;;;;;;;8.90;4.63;;;29.50;99.90;;;;;;4957047;28;20387;-51
2023/06/28 10:10:20;;;;;;;7.83;5.40;;;29.50;99.90;;;;;;4957009;28;20041;-51
2023/06/28 10:12:46;;;;;;;9.63;4.88;;;29.50;99.90;;;;;;4956792;29;20730;-51
2023/06/28 10:15:20;;;;;;;8.93;6.90;;;29.60;99.90;;;;;;4957094;28;20023;-51
2023/06/28 10:17:47;;;;;;;9.23;4.80;;;29.60;99.90;;;;;;4956905;28;20031;-51
2023/06/28 10:20:13;;;;;;;8.52;5.72;;;29.50;99.90;;;;;;4956730;28;20082;-51
2023/06/28 10:22:39;;;;;;;12.88;5.80;;;29.50;99.90;;;;;;4956664;28;20380;-51
2023/06/28 10:25:05;;;;;;;12.82;7.15;;;29.50;99.90;;;;;;4956748;28;20031;-51
2023/06/28 10:27:33;;;;;;;11.55;5.63;;;29.50;99.90;;;;;;4956703;28;20023;-52
2023/06/28 10:30:00;;;;;;;9.60;5.53;;;29.50;99.90;;;;;;4956589;28;20035;-51
2023/06/28 10:32:27;;;;;;;9.80;6.60;;;29.50;99.90;;;;;;4956802;28;20023;-51
2023/06/28 10:34:54;;;;;;;9.65;5.38;;;29.50;99.90;;;;;;4956512;28;20027;-51
2023/06/28 10:37:23;;;;;;;8.75;5.15;;;29.60;99.90;;;;;;4956422;28;20480;-51
2023/06/28 10:39:53;;;;;;;10.40;5.95;;;29.60;99.90;;;;;;4955136;29;20034;-51
2023/06/28 10:42:20;;;;;;;13.27;4.45;;;29.60;99.90;;;;;;4956304;28;20464;-51
2023/06/28 10:44:53;;;;;;;16.33;6.60;;;29.70;99.90;;;;;;4954913;29;20043;-51
2023/06/28 10:47:19;;;;;;;11.15;5.43;;;29.70;99.90;;;;;;4956144;28;20033;-51
2023/06/28 10:50:16;;;;;;;9.05;4.18;;;29.70;99.90;;;;;;4956369;28;20027;-52
2023/06/28 10:52:46;;;;;;;9.98;6.13;;;29.80;99.90;;;;;;4956215;29;20023;-52
2023/06/28 10:55:12;;;;;;;10.63;5.50;;;29.80;99.90;;;;;;4954909;29;20023;-52
2023/06/28 10:57:39;;;;;;;7.05;4.50;;;29.90;99.90;;;;;;4956248;28;20059;-52
2023/06/28 11:00:29;;;;;;;9.82;4.93;;;29.90;99.90;;;;;;4956240;28;20159;-51
2023/06/28 11:03:02;;;;;;;8.88;5.00;;;29.90;99.90;;;;;;4955959;28;20130;-51
2023/06/28 11:05:53;;;;;;;8.90;4.50;;;29.90;99.90;;;;;;4954805;29;20039;-51
2023/06/28 11:08:20;;;;;;;8.95;4.20;;;29.90;99.90;;;;;;4953388;28;20368;-51
2023/06/28 11:10:58;;;;;;;5.97;3.95;;;30.00;99.90;;;;;;4954272;28;20110;-51
2023/06/28 11:13:39;;;;;;;11.45;5.15;;;30.00;99.90;;;;;;4954654;28;20023;-51
2023/06/28 11:16:10;;;;;;;8.00;4.00;;;30.10;99.90;;;;;;4954712;28;20037;-51
2023/06/28 11:18:36;;;;;;;8.20;4.20;;;30.10;99.90;;;;;;4955257;28;20034;-51
2023/06/28 11:21:04;;;;;;;6.93;5.13;;;30.20;99.90;;;;;;4956058;28;20384;-52
2023/06/28 11:23:35;;;;;;;7.55;5.22;;;30.20;99.90;;;;;;4955754;28;20309;-51
2023/06/28 11:26:05;;;;;;;16.63;4.95;;;30.20;99.90;;;;;;4954523;29;20099;-51
2023/06/28 11:28:33;;;;;;;11.95;4.25;;;30.30;99.90;;;;;;4955523;28;20027;-51
2023/06/28 11:31:16;;;;;;;6.65;4.63;;;30.30;99.90;;;;;;4955562;28;20034;-51
2023/06/28 11:33:43;;;;;;;8.63;4.40;;;30.40;99.90;;;;;;4955493;28;20023;-51
2023/06/28 11:36:11;;;;;;;7.13;5.00;;;30.40;99.90;;;;;;4955693;28;20543;-50
2023/06/28 11:38:37;;;;;;;;;;;30.50;99.90;;;;;;4956078;28;20042;-51
2023/06/28 11:41:04;;;;;;;13.15;6.53;;;30.40;99.90;;;;;;4954077;29;19910;-51
2023/06/28 11:43:29;;;;;;;16.60;9.77;;;30.50;99.90;;;;;;4955337;28;20027;-50
2023/06/28 11:45:55;;;;;;;12.23;5.55;;;30.40;99.90;;;;;;4955305;29;20050;-51
2023/06/28 11:48:21;;;;;;;8.82;5.47;;;30.40;99.90;;;;;;4955142;29;20031;-51
2023/06/28 11:51:01;;;;;;;10.13;6.78;;;30.50;99.90;;;;;;4955168;29;20376;-51
2023/06/28 11:53:28;;;;;;;8.63;5.03;;;30.40;99.90;;;;;;4955263;28;20484;-51
2023/06/28 11:55:54;;;;;;;6.65;4.20;;;30.50;99.90;;;;;;4953903;29;20042;-51
2023/06/28 11:58:36;;;;;;;8.68;6.15;;;30.40;99.90;;;;;;4955132;28;20098;-50
2023/06/28 12:01:04;;;;;;;7.97;5.55;;;30.50;99.90;;;;;;4955015;28;20408;-50
2023/06/28 12:03:37;;;;;;;6.32;4.93;;;30.50;99.90;;;;;;4953562;29;20031;-51
2023/06/28 12:06:05;;;;;;;6.88;5.03;;;30.50;99.90;;;;;;4955324;28;20035;-50
2023/06/28 12:08:35;;;;;;;10.10;4.40;;;30.50;99.90;;;;;;4954755;28;20051;-50
2023/06/28 12:11:07;;;;;;;9.23;4.32;;;30.60;99.90;;;;;;4954830;28;20510;-50
2023/06/28 12:13:33;;;;;;;8.23;4.95;;;30.50;99.90;;;;;;4955073;28;20027;-51
2023/06/28 12:16:13;;;;;;;10.02;6.80;;;30.60;99.90;;;;;;4954746;28;20086;-50
2023/06/28 12:18:57;;;;;;;9.02;5.00;;;30.60;99.90;;;;;;4953822;29;20050;-50
2023/06/28 12:21:24;;;;;;;16.73;11.65;;;30.60;99.90;;;;;;4954843;28;20035;-50
2023/06/28 12:23:50;;;;;;;7.45;5.45;;;30.60;99.90;;;;;;4954562;28;20031;-53
2023/06/28 12:26:17;;;;;;;12.50;6.85;;;30.60;99.90;;;;;;4954650;28;20027;-53
2023/06/28 12:28:48;;;;;;;6.60;4.63;;;30.60;99.90;;;;;;4954195;28;20031;-57
2023/06/28 12:31:14;;;;;;;9.55;7.35;;;30.60;99.90;;;;;;4954680;28;20027;-50
2023/06/28 12:33:41;;;;;;;8.43;4.85;;;30.60;99.90;;;;;;4954709;28;20024;-51
2023/06/28 12:36:11;;;;;;;8.15;4.82;;;30.60;99.90;;;;;;4954635;28;20039;-50
2023/06/28 12:38:43;;;;;;;10.75;6.95;;;30.60;99.90;;;;;;4954351;28;20039;-50
2023/06/28 12:41:11;;;;;;;10.48;5.10;;;30.70;99.90;;;;;;4954299;28;20023;-51
2023/06/28 12:43:37;;;;;;;12.50;7.82;;;30.70;99.90;;;;;;4954224;28;20030;-50
2023/06/28 12:46:03;;;;;;;8.55;5.43;;;30.70;99.90;;;;;;4952903;29;20412;-50